Map

Track Data

SID SEASON NUMBER BASIN SUBBASIN NAME ISO_TIME NATURE LAT LON WMO_WIND WMO_PRES WMO_AGENCY TRACK_TYPE DIST2LAND LANDFALL IFLAG USA_AGENCY USA_ATCF_ID USA_LAT USA_LON USA_RECORD USA_STATUS USA_WIND USA_PRES USA_SSHS USA_R34_NE USA_R34_SE USA_R34_SW USA_R34_NW USA_R50_NE USA_R50_SE USA_R50_SW USA_R50_NW USA_R64_NE USA_R64_SE USA_R64_SW USA_R64_NW USA_POCI USA_ROCI USA_RMW USA_EYE TOKYO_LAT TOKYO_LON TOKYO_GRADE TOKYO_WIND TOKYO_PRES TOKYO_R50_DIR TOKYO_R50_LONG TOKYO_R50_SHORT TOKYO_R30_DIR TOKYO_R30_LONG TOKYO_R30_SHORT TOKYO_LAND CMA_LAT CMA_LON CMA_CAT CMA_WIND CMA_PRES HKO_LAT HKO_LON HKO_CAT HKO_WIND HKO_PRES NEWDELHI_LAT NEWDELHI_LON NEWDELHI_GRADE NEWDELHI_WIND NEWDELHI_PRES NEWDELHI_CI NEWDELHI_DP NEWDELHI_POCI REUNION_LAT REUNION_LON REUNION_TYPE REUNION_WIND REUNION_PRES REUNION_TNUM REUNION_CI REUNION_RMW REUNION_R34_NE REUNION_R34_SE REUNION_R34_SW REUNION_R34_NW REUNION_R50_NE REUNION_R50_SE REUNION_R50_SW REUNION_R50_NW REUNION_R64_NE REUNION_R64_SE REUNION_R64_SW REUNION_R64_NW BOM_LAT BOM_LON BOM_TYPE BOM_WIND BOM_PRES BOM_TNUM BOM_CI BOM_RMW BOM_R34_NE BOM_R34_SE BOM_R34_SW BOM_R34_NW BOM_R50_NE BOM_R50_SE BOM_R50_SW BOM_R50_NW BOM_R64_NE BOM_R64_SE BOM_R64_SW BOM_R64_NW BOM_ROCI BOM_POCI BOM_EYE BOM_POS_METHOD BOM_PRES_METHOD NADI_LAT NADI_LON NADI_CAT NADI_WIND NADI_PRES WELLINGTON_LAT WELLINGTON_LON WELLINGTON_WIND WELLINGTON_PRES DS824_LAT DS824_LON DS824_STAGE DS824_WIND DS824_PRES TD9636_LAT TD9636_LON TD9636_STAGE TD9636_WIND TD9636_PRES TD9635_LAT TD9635_LON TD9635_WIND TD9635_PRES TD9635_ROCI NEUMANN_LAT NEUMANN_LON NEUMANN_CLASS NEUMANN_WIND NEUMANN_PRES MLC_LAT MLC_LON MLC_CLASS MLC_WIND MLC_PRES USA_GUST BOM_GUST BOM_GUST_PER REUNION_GUST REUNION_GUST_PER USA_SEAHGT USA_SEARAD_NE USA_SEARAD_SE USA_SEARAD_SW USA_SEARAD_NW STORM_SPEED STORM_DIR
1926030N07141 1926 10 WP MM NOT_NAMED 1926-01-29 22:00:00 NR 7.20000 141.000 main 1034 1010 __________O___ -1 7.20000 141.000 2 12 255
1926030N07141 1926 10 WP MM NOT_NAMED 1926-01-30 00:00:00 NR 7.10051 140.619 main 1010 986 __________P___ -1 7.10051 140.619 2 12 255
1926030N07141 1926 10 WP MM NOT_NAMED 1926-01-30 03:00:00 NR 6.95075 140.053 main 986 940 __________P___ -1 6.95075 140.053 2 12 255
1926030N07141 1926 10 WP MM NOT_NAMED 1926-01-30 06:00:00 NR 6.80056 139.501 main 940 908 __________P___ -1 6.80056 139.501 2 11 254
1926030N07141 1926 10 WP MM NOT_NAMED 1926-01-30 09:00:00 NR 6.65015 138.971 main 908 889 __________P___ -1 6.65015 138.971 2 11 254
1926030N07141 1926 10 WP MM NOT_NAMED 1926-01-30 10:00:00 NR 6.60000 138.800 main 889 867 __________O___ -1 6.60000 138.800 2 10 253
1926030N07141 1926 10 WP MM NOT_NAMED 1926-01-30 12:00:00 NR 6.50066 138.468 main 867 839 __________P___ -1 6.50066 138.468 2 10 254
1926030N07141 1926 10 WP MM NOT_NAMED 1926-01-30 15:00:00 NR 6.36398 137.984 main 839 812 __________P___ -1 6.36398 137.984 2 10 256
1926030N07141 1926 10 WP MM NOT_NAMED 1926-01-30 18:00:00 NR 6.25881 137.495 main 812 788 __________P___ -1 6.25881 137.495 2 10 261
1926030N07141 1926 10 WP MM NOT_NAMED 1926-01-30 21:00:00 NR 6.20390 136.981 main 788 784 __________P___ -1 6.20390 136.981 2 10 265
1926030N07141 1926 10 WP MM NOT_NAMED 1926-01-30 22:00:00 NR 6.20000 136.800 main 784 778 __________O___ -1 6.20000 136.800 2 11 270
1926030N07141 1926 10 WP MM NOT_NAMED 1926-01-31 00:00:00 NR 6.20787 136.409 main 778 774 __________P___ -1 6.20787 136.409 2 12 274
1926030N07141 1926 10 WP MM NOT_NAMED 1926-01-31 03:00:00 NR 6.26987 135.792 main 784 784 __________P___ -1 6.26987 135.792 2 13 278
1926030N07141 1926 10 WP MM NOT_NAMED 1926-01-31 06:00:00 NR 6.38370 135.153 main 796 784 __________P___ -1 6.38370 135.153 2 13 282
1926030N07141 1926 10 WP MM NOT_NAMED 1926-01-31 09:00:00 NR 6.54004 134.511 main 784 772 __________P___ -1 6.54004 134.511 2 13 284
1926030N07141 1926 10 WP MM NOT_NAMED 1926-01-31 10:00:00 NR 6.60000 134.300 main 772 744 __________O___ -1 6.60000 134.300 2 14 286
1926030N07141 1926 10 WP MM NOT_NAMED 1926-01-31 12:00:00 NR 6.72941 133.855 main 744 701 __________P___ -1 6.72941 133.855 2 14 288
1926030N07141 1926 10 WP MM NOT_NAMED 1926-01-31 15:00:00 NR 6.95529 133.193 main 709 662 __________P___ -1 6.95529 133.193 2 14 290
1926030N07141 1926 10 WP MM NOT_NAMED 1926-01-31 18:00:00 NR 7.19684 132.577 main 662 596 __________P___ -1 7.19684 132.577 2 12 293
1926030N07141 1926 10 WP MM NOT_NAMED 1926-01-31 21:00:00 NR 7.42900 132.049 main 596 584 __________P___ -1 7.42900 132.049 2 11 294
1926030N07141 1926 10 WP MM NOT_NAMED 1926-01-31 22:00:00 NR 7.50000 131.900 main 584 562 __________O___ -1 7.50000 131.900 2 8 297
1926030N07141 1926 10 WP MM NOT_NAMED 1926-02-01 00:00:00 NR 7.61935 131.667 main 562 529 __________P___ -1 7.61935 131.667 2 7 300
1926030N07141 1926 10 WP MM NOT_NAMED 1926-02-01 03:00:00 NR 7.77986 131.412 main 529 507 __________P___ -1 7.77986 131.412 2 5 305
1926030N07141 1926 10 WP MM NOT_NAMED 1926-02-01 06:00:00 NR 7.92368 131.226 main 507 497 __________P___ -1 7.92368 131.226 2 4 308
1926030N07141 1926 10 WP MM NOT_NAMED 1926-02-01 09:00:00 NR 8.05691 131.060 main 498 487 __________P___ -1 8.05691 131.060 2 4 308
1926030N07141 1926 10 WP MM NOT_NAMED 1926-02-01 10:00:00 NR 8.10000 131.000 main 487 466 __________O___ -1 8.10000 131.000 2 5 301
1926030N07141 1926 10 WP MM NOT_NAMED 1926-02-01 12:00:00 NR 8.18905 130.834 main 466 445 __________P___ -1 8.18905 130.834 2 6 297
1926030N07141 1926 10 WP MM NOT_NAMED 1926-02-01 15:00:00 NR 8.31632 130.578 main 445 415 __________P___ -1 8.31632 130.578 2 6 296
1926030N07141 1926 10 WP MM NOT_NAMED 1926-02-01 18:00:00 NR 8.43878 130.323 main 415 395 __________P___ -1 8.43878 130.323 2 6 296
1926030N07141 1926 10 WP MM NOT_NAMED 1926-02-01 21:00:00 NR 8.55957 130.078 main 398 387 __________P___ -1 8.55957 130.078 2 5 297
1926030N07141 1926 10 WP MM NOT_NAMED 1926-02-01 22:00:00 NR 8.60000 130.000 main 387 377 __________O___ -1 8.60000 130.000 2 5 299
1926030N07141 1926 10 WP MM NOT_NAMED 1926-02-02 00:00:00 NR 8.68065 129.858 main 380 359 __________P___ -1 8.68065 129.858 2 5 301
1926030N07141 1926 10 WP MM NOT_NAMED 1926-02-02 03:00:00 NR 8.80160 129.657 main 363 346 __________P___ -1 8.80160 129.657 2 5 302
1926030N07141 1926 10 WP MM NOT_NAMED 1926-02-02 06:00:00 NR 8.92533 129.464 main 346 328 __________P___ -1 8.92533 129.464 2 5 303
1926030N07141 1926 10 WP MM NOT_NAMED 1926-02-02 09:00:00 NR 9.05495 129.268 main 331 320 __________P___ -1 9.05495 129.268 2 5 304
1926030N07141 1926 10 WP MM NOT_NAMED 1926-02-02 10:00:00 NR 9.10000 129.200 main 320 309 __________O___ -1 9.10000 129.200 2 5 307
1926030N07141 1926 10 WP MM NOT_NAMED 1926-02-02 12:00:00 NR 9.19148 129.084 main 311 291 __________P___ -1 9.19148 129.084 2 5 309
1926030N07141 1926 10 WP MM NOT_NAMED 1926-02-02 15:00:00 NR 9.33498 128.905 main 291 275 __________P___ -1 9.33498 128.905 2 5 307
1926030N07141 1926 10 WP MM NOT_NAMED 1926-02-02 18:00:00 NR 9.48620 128.692 main 275 245 __________P___ -1 9.48620 128.692 2 6 303
1926030N07141 1926 10 WP MM NOT_NAMED 1926-02-02 21:00:00 NR 9.64524 128.413 main 245 237 __________P___ -1 9.64524 128.413 2 7 299
1926030N07141 1926 10 WP MM NOT_NAMED 1926-02-02 22:00:00 NR 9.70000 128.300 main 237 208 __________O___ -1 9.70000 128.300 2 8 295
1926030N07141 1926 10 WP MM NOT_NAMED 1926-02-03 00:00:00 NR 9.81890 128.037 main 208 177 __________P___ -1 9.81890 128.037 2 9 293
1926030N07141 1926 10 WP MM NOT_NAMED 1926-02-03 03:00:00 NR 10.0036 127.574 main 177 143 __________P___ -1 10.0036 127.574 2 10 291
1926030N07141 1926 10 WP MM NOT_NAMED 1926-02-03 06:00:00 NR 10.1850 127.050 main 143 101 __________P___ -1 10.1850 127.050 2 11 288
1926030N07141 1926 10 WP MM NOT_NAMED 1926-02-03 09:00:00 NR 10.3505 126.490 main 101 86 __________P___ -1 10.3505 126.490 2 12 286
1926030N07141 1926 10 WP MM NOT_NAMED 1926-02-03 10:00:00 NR 10.4000 126.300 main 86 57 __________O___ -1 10.4000 126.300 2 11 286
1926030N07141 1926 10 WP MM NOT_NAMED 1926-02-03 12:00:00 NR 10.5048 125.929 main 57 21 __________P___ -1 10.5048 125.929 2 12 285
1926030N07141 1926 10 WP MM NOT_NAMED 1926-02-03 15:00:00 NR 10.6435 125.353 main 21 0 __________P___ -1 10.6435 125.353 2 12 282
1926030N07141 1926 10 WP MM NOT_NAMED 1926-02-03 18:00:00 NR 10.7461 124.768 main 0 10 __________P___ -1 10.7461 124.768 2 12 278
1926030N07141 1926 10 WP MM NOT_NAMED 1926-02-03 21:00:00 NR 10.7972 124.189 main 21 0 __________P___ -1 10.7972 124.189 2 11 274
1926030N07141 1926 10 WP MM NOT_NAMED 1926-02-03 22:00:00 NR 10.8000 124.000 main 0 0 __________O___ -1 10.8000 124.000 2 11 271
1926030N07141 1926 10 WP MM NOT_NAMED 1926-02-04 00:00:00 NR 10.8023 123.644 main 0 0 __________P___ -1 10.8023 123.644 2 10 267
1926030N07141 1926 10 WP MM NOT_NAMED 1926-02-04 03:00:00 NR 10.7559 123.122 main 0 0 __________P___ -1 10.7559 123.122 2 10 261
1926030N07141 1926 10 WP MM NOT_NAMED 1926-02-04 06:00:00 NR 10.6473 122.605 main 11 0 __________P___ -1 10.6473 122.605 2 11 255
1926030N07141 1926 10 WP MM NOT_NAMED 1926-02-04 09:00:00 NR 10.4732 122.079 main 0 0 __________P___ -1 10.4732 122.079 2 11 250
1926030N07141 1926 10 WP MM NOT_NAMED 1926-02-04 10:00:00 NR 10.4000 121.900 main 0 0 __________O___ -1 10.4000 121.900 2 13 244
1926030N07141 1926 10 WP MM NOT_NAMED 1926-02-04 12:00:00 NR 10.1981 121.506 main 49 49 __________P___ -1 10.1981 121.506 2 14 240
1926030N07141 1926 10 WP MM NOT_NAMED 1926-02-04 15:00:00 NR 9.83769 120.903 main 128 126 __________P___ -1 9.83769 120.903 2 14 238
1926030N07141 1926 10 WP MM NOT_NAMED 1926-02-04 18:00:00 NR 9.47186 120.313 main 126 118 __________P___ -1 9.47186 120.313 2 13 239
1926030N07141 1926 10 WP MM NOT_NAMED 1926-02-04 21:00:00 NR 9.17254 119.767 main 120 110 __________P___ -1 9.17254 119.767 2 12 242
1926030N07141 1926 10 WP MM NOT_NAMED 1926-02-04 22:00:00 NR 9.10000 119.600 main 110 94 __________O___ -1 9.10000 119.600 2 10 252
1926030N07141 1926 10 WP MM NOT_NAMED 1926-02-05 00:00:00 NR 9.02593 119.300 main 94 62 __________P___ -1 9.02593 119.300 2 8 262
1926030N07141 1926 10 WP MM NOT_NAMED 1926-02-05 03:00:00 NR 9.00317 118.899 main 62 24 __________P___ -1 9.00317 118.899 2 8 272
1926030N07141 1926 10 WP MM NOT_NAMED 1926-02-05 06:00:00 NR 9.05862 118.541 main 24 0 __________P___ -1 9.05862 118.541 2 7 283
1926030N07141 1926 10 WP MM NOT_NAMED 1926-02-05 09:00:00 NR 9.16092 118.209 main 0 0 __________P___ -1 9.16092 118.209 2 7 288
1926030N07141 1926 10 WP MM NOT_NAMED 1926-02-05 10:00:00 NR 9.20000 118.100 main 0 0 __________O___ -1 9.20000 118.100 2 7 286
1926030N07141 1926 10 WP MM NOT_NAMED 1926-02-05 12:00:00 NR 9.25513 117.872 main 11 11 __________P___ -1 9.25513 117.872 2 7 287
1926030N07141 1926 10 WP MM NOT_NAMED 1926-02-05 15:00:00 NR 9.36303 117.542 main 39 39 __________P___ -1 9.36303 117.542 2 7 291
1926030N07141 1926 10 WP MM NOT_NAMED 1926-02-05 18:00:00 NR 9.49563 117.222 main 70 70 __________P___ -1 9.49563 117.222 2 7 294
1926030N07141 1926 10 WP MM NOT_NAMED 1926-02-05 21:00:00 NR 9.64665 116.906 main 102 109 __________P___ -1 9.64665 116.906 2 7 296
1926030N07141 1926 10 WP MM NOT_NAMED 1926-02-05 22:00:00 NR 9.70000 116.800 main 117 117 __________O___ -1 9.70000 116.800 2 7 296
1926030N07141 1926 10 WP MM NOT_NAMED 1926-02-06 00:00:00 NR 9.80518 116.583 main 141 141 __________P___ -1 9.80518 116.583 2 7 297
1926030N07141 1926 10 WP MM NOT_NAMED 1926-02-06 03:00:00 NR 9.97561 116.258 main 180 188 __________P___ -1 9.97561 116.258 2 7 299
1926030N07141 1926 10 WP MM NOT_NAMED 1926-02-06 06:00:00 NR 10.1557 115.933 main 228 228 __________P___ -1 10.1557 115.933 2 7 300
1926030N07141 1926 10 WP MM NOT_NAMED 1926-02-06 09:00:00 NR 10.3392 115.608 main 260 260 __________P___ -1 10.3392 115.608 2 7 300
1926030N07141 1926 10 WP MM NOT_NAMED 1926-02-06 10:00:00 NR 10.4000 115.500 main 276 276 __________O___ -1 10.4000 115.500 2 7 300
1926030N07141 1926 10 WP MM NOT_NAMED 1926-02-06 12:00:00 NR 10.5202 115.283 main 300 300 __________P___ -1 10.5202 115.283 2 7 299
1926030N07141 1926 10 WP MM NOT_NAMED 1926-02-06 15:00:00 NR 10.6970 114.959 main 340 349 __________P___ -1 10.6970 114.959 2 7 299
1926030N07141 1926 10 WP MM NOT_NAMED 1926-02-06 18:00:00 NR 10.8709 114.634 main 388 388 __________P___ -1 10.8709 114.634 2 7 298
1926030N07141 1926 10 WP MM NOT_NAMED 1926-02-06 21:00:00 NR 11.0429 114.308 main 422 428 __________P___ -1 11.0429 114.308 2 7 298
1926030N07141 1926 10 WP MM NOT_NAMED 1926-02-06 22:00:00 NR 11.1000 114.200 main 437 __________O___ -1 11.1000 114.200 7 7 299

Digital Typhoon Data and Search

About IBTrACS Database

This database is a web-friendly format of International Best Track Archive for Climate Stewardship (IBTrACS), a global best track data archive curated by NOAA dating back to 1842.

Updated: 2021-12-01